Pittsfield, IL

3:16 AM CDT on May 21, 2018 (GMT -0500)
Pittsfield Penstone Municipal

Weather History for KPPQ - January, 2014

Change the Weather History Date:

Thursday, January 2, 2014

  Actual Average (KUIN) Record (KUIN)
Temperature  
Mean Temperature 10 °F -  
Max Temperature 18 °F 33 °F 68 °F (2004)
Min Temperature 1 °F 19 °F -12 °F (2018)
Degree Days  
Heating Degree Days 56    
Moisture  
Dew Point 7 °F    
Average Humidity 77    
Maximum Humidity 85    
Minimum Humidity 68    
Precipitation  
Precipitation 0.00 in - - ()
Sea Level Pressure  
Sea Level Pressure 30.32 in    
Wind  
Wind Speed 12 mph (NW)    
Max Wind Speed 17 mph    
Max Gust Speed 24 mph    
Visibility 10 miles    
Events Snow    
Averages and records for this station are not official NWS values.
T = Trace of Precipitation, MM = Missing Value Source: NWS Daily Summary

Daily Weather History Graph

Daily Weather History Graph

Search for Another Location

Airport or City:

Astronomy

Jan. 02, 2014 Rise Set
Actual Time 7:24 AM CST 4:50 PM CST
Civil Twilight 6:53 AM CST 5:20 PM CST
Nautical Twilight 6:20 AM CST 5:54 PM CST
Astronomical Twilight 5:47 AM CST 6:27 PM CST
Moon 8:05 AM CST (1/2) 6:47 PM CST (1/2)
Length of Visible Light 10h 26m
Length of Day
9h 26m
Waxing Crescent, 3% of the Moon is Illuminated
Jan 2
Waxing Crescent
Jan 7
First Quarter
Jan 15
Full
Jan 23
Last Quarter
Jan 30
New

Hourly Weather History & Observations

Time (CST) Temp. Windchill Dew Point Humidity Pressure Visibility Wind Dir Wind Speed Gust Speed Precip Events Conditions
12:15 AM 18.0 °F 4.2 °F 14.0 °F 84% 30.14 in 2.0 mi North 13.8 mph 20.7 mph N/A Snow Light Snow
12:35 AM 17.2 °F 2.2 °F 13.3 °F 84% 30.14 in 2.5 mi North 16.1 mph 23.0 mph N/A Snow Light Snow
12:55 AM 16.7 °F 2.0 °F 12.9 °F 85% 30.14 in 3.0 mi North 15.0 mph 24.2 mph N/A Snow Light Snow
1:15 AM 16.5 °F 1.3 °F 12.7 °F 85% 30.14 in 3.0 mi NNW 16.1 mph - N/A Snow Light Snow
1:35 AM 16.5 °F 1.8 °F 12.4 °F 84% 30.15 in 5.0 mi North 15.0 mph - N/A   Overcast
1:55 AM 16.3 °F 2.7 °F 12.2 °F 84% 30.16 in 7.0 mi NNW 12.7 mph - N/A   Overcast
2:15 AM 16.3 °F 2.1 °F 12.0 °F 83% 30.16 in 10.0 mi North 13.8 mph 20.7 mph N/A   Overcast
2:35 AM 16.3 °F 1.6 °F 11.7 °F 82% 30.16 in 10.0 mi NNW 15.0 mph - N/A   Overcast
2:55 AM 16.2 °F 0.3 °F 11.3 °F 81% 30.17 in 10.0 mi NNW 17.3 mph - N/A   Overcast
3:15 AM 15.8 °F 1.4 °F 11.1 °F 82% 30.17 in 10.0 mi NNW 13.8 mph - N/A   Overcast
3:35 AM 15.8 °F 2.1 °F 11.1 °F 82% 30.18 in 10.0 mi NNW 12.7 mph - N/A   Overcast
3:55 AM 15.8 °F 0.3 °F 10.9 °F 81% 30.18 in 10.0 mi NNW 16.1 mph - N/A   Overcast
4:15 AM 15.8 °F 1.4 °F 10.9 °F 81% 30.19 in 10.0 mi NW 13.8 mph - N/A   Overcast
4:35 AM 15.6 °F 0.6 °F 10.4 °F 80% 30.20 in 10.0 mi NW 15.0 mph 20.7 mph N/A   Overcast
4:55 AM 15.1 °F 0.5 °F 10.2 °F 81% 30.20 in 10.0 mi NW 13.8 mph - N/A   Overcast
5:15 AM 14.7 °F -0.5 °F 9.5 °F 80% 30.20 in 10.0 mi NW 15.0 mph - N/A   Overcast
5:35 AM 14.5 °F 0.5 °F 9.3 °F 80% 30.21 in 10.0 mi NW 12.7 mph - N/A   Overcast
5:55 AM 14.5 °F -0.2 °F 9.5 °F 80% 30.22 in 10.0 mi NW 13.8 mph 18.4 mph N/A Snow Light Snow
6:15 AM 14.5 °F -0.7 °F 9.5 °F 80% 30.23 in 10.0 mi NW 15.0 mph - N/A Snow Light Snow
6:35 AM 14.0 °F -2.0 °F 9.0 °F 80% 30.23 in 10.0 mi NW 16.1 mph - N/A Snow Light Snow
6:55 AM 14.0 °F -0.8 °F 8.8 °F 80% 30.24 in 10.0 mi NW 13.8 mph - N/A   Overcast
7:15 AM 14.0 °F -0.2 °F 8.8 °F 80% 30.25 in 10.0 mi NW 12.7 mph - N/A Snow Light Snow
7:35 AM 13.5 °F -0.9 °F 8.4 °F 80% 30.25 in 10.0 mi NW 12.7 mph - N/A   Overcast
7:55 AM 13.1 °F -3.1 °F 7.7 °F 79% 30.25 in 10.0 mi NW 16.1 mph - N/A   Overcast
8:15 AM 12.2 °F -3.7 °F 6.8 °F 79% 30.26 in 10.0 mi NW 15.0 mph - N/A   Mostly Cloudy
8:35 AM 12.2 °F -1.8 °F 6.4 °F 78% 30.27 in 10.0 mi NW 11.5 mph - N/A   Scattered Clouds
8:55 AM 12.2 °F -3.1 °F 6.4 °F 78% 30.28 in 10.0 mi NW 13.8 mph 17.3 mph N/A   Clear
9:15 AM 12.6 °F -2.0 °F 6.6 °F 77% 30.29 in 10.0 mi NW 12.7 mph 16.1 mph N/A   Scattered Clouds
9:35 AM 13.1 °F -0.7 °F 6.6 °F 75% 30.30 in 10.0 mi NW 11.5 mph - N/A   Scattered Clouds
9:55 AM 13.6 °F -0.7 °F 7.0 °F 75% 30.30 in 10.0 mi NW 12.7 mph - N/A   Scattered Clouds
10:15 AM 14.5 °F 0.5 °F 7.0 °F 72% 30.31 in 10.0 mi WNW 12.7 mph - N/A   Scattered Clouds
10:35 AM 14.5 °F 1.1 °F 7.2 °F 73% 30.31 in 10.0 mi WNW 11.5 mph 17.3 mph N/A   Mostly Cloudy
10:55 AM 15.1 °F 1.8 °F 7.5 °F 72% 30.31 in 10.0 mi WNW 11.5 mph 17.3 mph N/A   Scattered Clouds
11:15 AM 15.8 °F 3.4 °F 7.7 °F 70% 30.30 in 10.0 mi WNW 10.4 mph 16.1 mph N/A   Clear
11:35 AM 16.5 °F 4.3 °F 8.2 °F 70% 30.30 in 10.0 mi WNW 10.4 mph - N/A   Clear
11:55 AM 17.1 °F 5.0 °F 8.4 °F 69% 30.30 in 10.0 mi WNW 10.4 mph - N/A   Clear
12:15 PM 18.0 °F 6.1 °F 9.1 °F 68% 30.30 in 10.0 mi WNW 10.4 mph - N/A   Clear
12:35 PM 18.1 °F 6.3 °F 9.3 °F 68% 30.30 in 10.0 mi WNW 10.4 mph - N/A   Clear
12:55 PM 18.1 °F 5.6 °F 9.3 °F 68% 30.30 in 10.0 mi NW 11.5 mph - N/A   Scattered Clouds
1:15 PM 18.1 °F 5.6 °F 9.5 °F 69% 30.30 in 10.0 mi WNW 11.5 mph - N/A   Clear
1:35 PM 18.3 °F 5.9 °F 9.5 °F 68% 30.31 in 10.0 mi WNW 11.5 mph - N/A   Clear
1:55 PM 18.3 °F 5.9 °F 9.5 °F 68% 30.32 in 10.0 mi WNW 11.5 mph - N/A   Clear
2:15 PM 18.1 °F 5.0 °F 9.5 °F 69% 30.33 in 10.0 mi WNW 12.7 mph 18.4 mph N/A   Clear
2:35 PM 17.6 °F 6.4 °F 9.5 °F 71% 30.34 in 10.0 mi WNW 9.2 mph 16.1 mph N/A   Clear
2:55 PM 17.4 °F 5.4 °F 9.1 °F 70% 30.35 in 10.0 mi WNW 10.4 mph - N/A   Clear
3:15 PM 16.7 °F 5.3 °F 8.6 °F 70% 30.36 in 10.0 mi NW 9.2 mph - N/A   Clear
3:35 PM 15.8 °F 2.7 °F 8.1 °F 72% 30.37 in 10.0 mi NW 11.5 mph 18.4 mph N/A   Clear
3:55 PM 15.8 °F 5.1 °F 7.7 °F 70% 30.38 in 10.0 mi WNW 8.1 mph - N/A   Clear
4:15 PM 14.9 °F 4.0 °F 7.3 °F 72% 30.38 in 10.0 mi WNW 8.1 mph - N/A   Clear
4:35 PM 14.5 °F 3.6 °F 7.0 °F 72% 30.39 in 10.0 mi WNW 8.1 mph - N/A   Clear
4:55 PM 13.8 °F 2.7 °F 6.8 °F 74% 30.40 in 10.0 mi WNW 8.1 mph - N/A   Clear
5:15 PM 13.1 °F 4.0 °F 6.4 °F 75% 30.41 in 10.0 mi WNW 5.8 mph - N/A   Clear
5:35 PM 11.8 °F 1.3 °F 5.2 °F 75% 30.42 in 10.0 mi NW 6.9 mph - N/A   Clear
5:55 PM 9.9 °F 0.2 °F 4.3 °F 78% 30.43 in 10.0 mi NW 5.8 mph - N/A   Clear
6:15 PM 9.7 °F -0.1 °F 3.9 °F 77% 30.44 in 10.0 mi WNW 5.8 mph - N/A   Clear
6:35 PM 9.1 °F -0.7 °F 3.6 °F 78% 30.45 in 10.0 mi NW 5.8 mph - N/A   Clear
6:55 PM 8.6 °F 0.1 °F 3.2 °F 79% 30.45 in 10.0 mi WNW 4.6 mph - N/A   Scattered Clouds
7:15 PM 7.3 °F -1.3 °F 1.6 °F 77% 30.45 in 10.0 mi NW 4.6 mph - N/A   Clear
7:35 PM 6.8 °F -2.0 °F 1.6 °F 79% 30.45 in 10.0 mi NW 4.6 mph - N/A   Clear
7:55 PM 8.1 °F - 2.3 °F 77% 30.46 in 10.0 mi Calm Calm - N/A   Clear
8:15 PM 8.2 °F 1.6 °F 2.1 °F 76% 30.46 in 10.0 mi NW 3.5 mph - N/A   Clear
8:35 PM 4.5 °F -2.7 °F -1.1 °F 78% 30.46 in 10.0 mi NW 3.5 mph - N/A   Clear
8:55 PM 5.7 °F -1.3 °F 0.5 °F 79% 30.46 in 10.0 mi NW 3.5 mph - N/A   Clear
9:15 PM 5.9 °F -3.0 °F 0.3 °F 78% 30.46 in 10.0 mi NW 4.6 mph - N/A   Scattered Clouds
9:35 PM 5.0 °F -4.1 °F -0.2 °F 79% 30.46 in 10.0 mi NNW 4.6 mph - N/A   Clear
9:55 PM 4.1 °F -5.1 °F -1.3 °F 78% 30.46 in 10.0 mi WNW 4.6 mph - N/A   Clear
10:15 PM 4.1 °F -8.0 °F -1.5 °F 78% 30.47 in 10.0 mi NW 6.9 mph - N/A   Clear
10:35 PM 2.3 °F -5.2 °F -2.2 °F 81% 30.47 in 10.0 mi NW 3.5 mph - N/A   Clear
10:55 PM 1.9 °F -7.6 °F -2.6 °F 81% 30.48 in 10.0 mi West 4.6 mph - N/A   Clear
11:15 PM 2.1 °F -5.4 °F -2.0 °F 83% 30.48 in 10.0 mi West 3.5 mph - N/A   Clear
11:35 PM 2.3 °F -5.2 °F -1.8 °F 83% 30.48 in 10.0 mi West 3.5 mph - N/A   Clear
11:55 PM 1.0 °F - -3.3 °F 82% 30.47 in 10.0 mi Calm Calm - N/A   Scattered Clouds